Khania/Souda, Greece
Current Conditions -  °F | °C
As of 2:20 AM on Wednesday 26 Nov 2014 (Local Time) from LGSA Reporting Station
Scattered Clouds Scattered Clouds  
Wind Chill: 54°   Ceiling: Unl
Heat Index: 54°   Visibility: 6mi
Dew Point: 41°   Wind: 6mph
Humidity: 62%   Direction: 20°NNE
Pressure: 30.09"   Gusts: NA
Location:  35.53°N, 24.15°E
Report Text: LGSA 252320Z 02005KT 9999 FEW020 SCT030 12/05 Q1019
Loading
Personal Weather Stations






























Interactive Weather Map New forecast layout! Learn more

10-Day Weather Forecast

Advertisements
Track Severe Weather on mobile